sensor_id;sensor_type;location;lat;lon;timestamp;P1;durP1;ratioP1;P2;durP2;ratioP2
79212;SDS011;68639;52.380;9.822;2024-01-07T00:02:06;26.17;;;16.63;;
79212;SDS011;68639;52.380;9.822;2024-01-07T00:04:31;26.83;;;16.93;;
79212;SDS011;68639;52.380;9.822;2024-01-07T00:06:59;29.27;;;17.60;;
79212;SDS011;68639;52.380;9.822;2024-01-07T00:09:24;25.73;;;17.13;;
79212;SDS011;68639;52.380;9.822;2024-01-07T00:11:49;27.83;;;16.43;;
79212;SDS011;68639;52.380;9.822;2024-01-07T00:14:15;30.50;;;17.73;;
79212;SDS011;68639;52.380;9.822;2024-01-07T00:16:41;28.17;;;17.00;;
79212;SDS011;68639;52.380;9.822;2024-01-07T00:19:06;31.33;;;18.30;;
79212;SDS011;68639;52.380;9.822;2024-01-07T00:21:31;30.83;;;18.17;;
79212;SDS011;68639;52.380;9.822;2024-01-07T00:23:57;30.70;;;17.93;;
79212;SDS011;68639;52.380;9.822;2024-01-07T00:26:22;25.90;;;16.27;;
79212;SDS011;68639;52.380;9.822;2024-01-07T00:28:47;25.30;;;15.83;;
79212;SDS011;68639;52.380;9.822;2024-01-07T00:31:12;27.07;;;16.30;;
79212;SDS011;68639;52.380;9.822;2024-01-07T00:33:38;25.90;;;16.47;;
79212;SDS011;68639;52.380;9.822;2024-01-07T00:36:03;31.27;;;17.77;;
79212;SDS011;68639;52.380;9.822;2024-01-07T00:38:29;28.37;;;17.47;;
79212;SDS011;68639;52.380;9.822;2024-01-07T00:40:54;29.07;;;17.03;;
79212;SDS011;68639;52.380;9.822;2024-01-07T00:43:19;27.67;;;17.43;;
79212;SDS011;68639;52.380;9.822;2024-01-07T00:45:44;30.27;;;17.70;;
79212;SDS011;68639;52.380;9.822;2024-01-07T00:48:09;28.87;;;17.10;;
79212;SDS011;68639;52.380;9.822;2024-01-07T00:50:35;28.47;;;16.50;;
79212;SDS011;68639;52.380;9.822;2024-01-07T00:53:00;25.37;;;17.17;;
79212;SDS011;68639;52.380;9.822;2024-01-07T00:55:25;27.83;;;16.77;;
79212;SDS011;68639;52.380;9.822;2024-01-07T00:57:50;30.13;;;18.37;;
79212;SDS011;68639;52.380;9.822;2024-01-07T01:00:16;27.83;;;17.27;;
79212;SDS011;68639;52.380;9.822;2024-01-07T01:02:41;27.00;;;17.57;;
79212;SDS011;68639;52.380;9.822;2024-01-07T01:05:06;31.73;;;17.83;;
79212;SDS011;68639;52.380;9.822;2024-01-07T01:07:32;29.50;;;17.57;;
79212;SDS011;68639;52.380;9.822;2024-01-07T01:09:57;30.87;;;17.73;;
79212;SDS011;68639;52.380;9.822;2024-01-07T01:12:23;30.47;;;17.33;;
79212;SDS011;68639;52.380;9.822;2024-01-07T01:14:48;29.50;;;16.77;;
79212;SDS011;68639;52.380;9.822;2024-01-07T01:17:13;28.37;;;16.67;;
79212;SDS011;68639;52.380;9.822;2024-01-07T01:19:38;24.33;;;15.13;;
79212;SDS011;68639;52.380;9.822;2024-01-07T01:22:03;27.50;;;15.73;;
79212;SDS011;68639;52.380;9.822;2024-01-07T01:24:29;26.53;;;14.47;;
79212;SDS011;68639;52.380;9.822;2024-01-07T01:26:54;24.93;;;15.33;;
79212;SDS011;68639;52.380;9.822;2024-01-07T01:29:19;33.13;;;16.90;;
79212;SDS011;68639;52.380;9.822;2024-01-07T01:31:44;26.80;;;15.17;;
79212;SDS011;68639;52.380;9.822;2024-01-07T01:34:09;25.63;;;15.13;;
79212;SDS011;68639;52.380;9.822;2024-01-07T01:36:34;28.57;;;14.17;;
79212;SDS011;68639;52.380;9.822;2024-01-07T01:39:00;24.80;;;14.80;;
79212;SDS011;68639;52.380;9.822;2024-01-07T01:41:25;27.33;;;13.60;;
79212;SDS011;68639;52.380;9.822;2024-01-07T01:43:50;25.07;;;13.30;;
79212;SDS011;68639;52.380;9.822;2024-01-07T01:46:15;25.73;;;13.87;;
79212;SDS011;68639;52.380;9.822;2024-01-07T01:48:41;25.07;;;14.47;;
79212;SDS011;68639;52.380;9.822;2024-01-07T01:51:07;24.63;;;14.63;;
79212;SDS011;68639;52.380;9.822;2024-01-07T01:53:32;25.07;;;14.27;;
79212;SDS011;68639;52.380;9.822;2024-01-07T01:55:58;28.07;;;14.80;;
79212;SDS011;68639;52.380;9.822;2024-01-07T01:58:24;23.73;;;13.07;;
79212;SDS011;68639;52.380;9.822;2024-01-07T02:00:50;24.13;;;14.00;;
79212;SDS011;68639;52.380;9.822;2024-01-07T02:03:16;21.33;;;12.97;;
79212;SDS011;68639;52.380;9.822;2024-01-07T02:05:41;23.43;;;14.07;;
79212;SDS011;68639;52.380;9.822;2024-01-07T02:08:06;24.63;;;14.53;;
79212;SDS011;68639;52.380;9.822;2024-01-07T02:10:32;25.13;;;14.43;;
79212;SDS011;68639;52.380;9.822;2024-01-07T02:13:01;25.13;;;14.40;;
79212;SDS011;68639;52.380;9.822;2024-01-07T02:15:26;31.17;;;15.40;;
79212;SDS011;68639;52.380;9.822;2024-01-07T02:17:51;26.03;;;14.03;;
79212;SDS011;68639;52.380;9.822;2024-01-07T02:20:16;24.53;;;14.33;;
79212;SDS011;68639;52.380;9.822;2024-01-07T02:22:42;28.70;;;16.03;;
79212;SDS011;68639;52.380;9.822;2024-01-07T02:25:07;26.47;;;14.57;;
79212;SDS011;68639;52.380;9.822;2024-01-07T02:27:33;27.17;;;14.70;;
79212;SDS011;68639;52.380;9.822;2024-01-07T02:29:58;23.33;;;13.87;;
79212;SDS011;68639;52.380;9.822;2024-01-07T02:32:23;26.30;;;14.60;;
79212;SDS011;68639;52.380;9.822;2024-01-07T02:34:49;23.40;;;13.27;;
79212;SDS011;68639;52.380;9.822;2024-01-07T02:37:14;22.93;;;13.60;;
79212;SDS011;68639;52.380;9.822;2024-01-07T02:39:39;25.47;;;14.00;;
79212;SDS011;68639;52.380;9.822;2024-01-07T02:42:04;23.23;;;13.70;;
79212;SDS011;68639;52.380;9.822;2024-01-07T02:44:30;23.03;;;13.73;;
79212;SDS011;68639;52.380;9.822;2024-01-07T02:46:55;21.80;;;13.13;;
79212;SDS011;68639;52.380;9.822;2024-01-07T02:49:20;24.47;;;13.37;;
79212;SDS011;68639;52.380;9.822;2024-01-07T02:51:45;20.10;;;12.03;;
79212;SDS011;68639;52.380;9.822;2024-01-07T02:54:14;22.60;;;12.53;;
79212;SDS011;68639;52.380;9.822;2024-01-07T02:56:39;21.60;;;12.70;;
79212;SDS011;68639;52.380;9.822;2024-01-07T02:59:04;22.33;;;12.00;;
79212;SDS011;68639;52.380;9.822;2024-01-07T03:01:29;21.80;;;12.20;;
79212;SDS011;68639;52.380;9.822;2024-01-07T03:03:54;19.70;;;11.13;;
79212;SDS011;68639;52.380;9.822;2024-01-07T03:06:20;18.97;;;11.93;;
79212;SDS011;68639;52.380;9.822;2024-01-07T03:08:45;19.03;;;11.70;;
79212;SDS011;68639;52.380;9.822;2024-01-07T03:11:10;19.03;;;11.07;;
79212;SDS011;68639;52.380;9.822;2024-01-07T03:13:36;20.07;;;11.23;;
79212;SDS011;68639;52.380;9.822;2024-01-07T03:16:01;21.23;;;12.63;;
79212;SDS011;68639;52.380;9.822;2024-01-07T03:18:27;19.03;;;11.27;;
79212;SDS011;68639;52.380;9.822;2024-01-07T03:20:52;22.00;;;11.37;;
79212;SDS011;68639;52.380;9.822;2024-01-07T03:23:17;16.87;;;10.47;;
79212;SDS011;68639;52.380;9.822;2024-01-07T03:25:43;17.20;;;11.10;;
79212;SDS011;68639;52.380;9.822;2024-01-07T03:28:09;19.73;;;10.63;;
79212;SDS011;68639;52.380;9.822;2024-01-07T03:30:34;16.93;;;10.00;;
79212;SDS011;68639;52.380;9.822;2024-01-07T03:32:59;16.67;;;9.57;;
79212;SDS011;68639;52.380;9.822;2024-01-07T03:35:24;16.70;;;9.60;;
79212;SDS011;68639;52.380;9.822;2024-01-07T03:37:50;16.50;;;9.23;;
79212;SDS011;68639;52.380;9.822;2024-01-07T03:40:15;16.40;;;9.10;;
79212;SDS011;68639;52.380;9.822;2024-01-07T03:42:40;14.23;;;9.00;;
79212;SDS011;68639;52.380;9.822;2024-01-07T03:45:05;16.43;;;9.37;;
79212;SDS011;68639;52.380;9.822;2024-01-07T03:47:31;19.33;;;8.63;;
79212;SDS011;68639;52.380;9.822;2024-01-07T03:49:57;13.27;;;8.27;;
79212;SDS011;68639;52.380;9.822;2024-01-07T03:52:22;14.27;;;7.60;;
79212;SDS011;68639;52.380;9.822;2024-01-07T03:54:47;14.50;;;7.90;;
79212;SDS011;68639;52.380;9.822;2024-01-07T03:57:12;13.30;;;7.77;;
79212;SDS011;68639;52.380;9.822;2024-01-07T03:59:38;12.10;;;7.30;;
79212;SDS011;68639;52.380;9.822;2024-01-07T04:02:03;13.47;;;7.00;;
79212;SDS011;68639;52.380;9.822;2024-01-07T04:04:28;12.63;;;7.40;;
79212;SDS011;68639;52.380;9.822;2024-01-07T04:06:54;12.80;;;6.87;;
79212;SDS011;68639;52.380;9.822;2024-01-07T04:09:19;13.43;;;6.83;;
79212;SDS011;68639;52.380;9.822;2024-01-07T04:11:45;13.13;;;7.00;;
79212;SDS011;68639;52.380;9.822;2024-01-07T04:14:10;13.37;;;7.40;;
79212;SDS011;68639;52.380;9.822;2024-01-07T04:16:35;10.73;;;6.20;;
79212;SDS011;68639;52.380;9.822;2024-01-07T04:19:01;10.77;;;7.00;;
79212;SDS011;68639;52.380;9.822;2024-01-07T04:21:26;13.97;;;6.77;;
79212;SDS011;68639;52.380;9.822;2024-01-07T04:23:51;11.23;;;6.10;;
79212;SDS011;68639;52.380;9.822;2024-01-07T04:26:16;9.03;;;6.00;;
79212;SDS011;68639;52.380;9.822;2024-01-07T04:28:42;10.20;;;5.97;;
79212;SDS011;68639;52.380;9.822;2024-01-07T04:31:07;11.57;;;6.13;;
79212;SDS011;68639;52.380;9.822;2024-01-07T04:33:33;13.20;;;7.10;;
79212;SDS011;68639;52.380;9.822;2024-01-07T04:35:58;12.60;;;5.73;;
79212;SDS011;68639;52.380;9.822;2024-01-07T04:38:24;10.83;;;6.50;;
79212;SDS011;68639;52.380;9.822;2024-01-07T04:40:50;10.53;;;6.30;;
79212;SDS011;68639;52.380;9.822;2024-01-07T04:43:15;11.50;;;6.07;;
79212;SDS011;68639;52.380;9.822;2024-01-07T04:45:40;10.77;;;5.77;;
79212;SDS011;68639;52.380;9.822;2024-01-07T04:48:05;12.93;;;6.80;;
79212;SDS011;68639;52.380;9.822;2024-01-07T04:50:31;11.03;;;5.40;;
79212;SDS011;68639;52.380;9.822;2024-01-07T04:52:56;9.87;;;6.00;;
79212;SDS011;68639;52.380;9.822;2024-01-07T04:55:21;10.40;;;5.40;;
79212;SDS011;68639;52.380;9.822;2024-01-07T04:57:46;9.97;;;5.67;;
79212;SDS011;68639;52.380;9.822;2024-01-07T05:00:12;10.63;;;6.33;;
79212;SDS011;68639;52.380;9.822;2024-01-07T05:02:37;11.37;;;6.93;;
79212;SDS011;68639;52.380;9.822;2024-01-07T05:05:02;11.60;;;6.27;;
79212;SDS011;68639;52.380;9.822;2024-01-07T05:07:27;9.63;;;5.50;;
79212;SDS011;68639;52.380;9.822;2024-01-07T05:09:53;9.37;;;5.47;;
79212;SDS011;68639;52.380;9.822;2024-01-07T05:12:18;9.73;;;5.67;;
79212;SDS011;68639;52.380;9.822;2024-01-07T05:14:43;10.93;;;5.20;;
79212;SDS011;68639;52.380;9.822;2024-01-07T05:17:09;9.20;;;5.40;;
79212;SDS011;68639;52.380;9.822;2024-01-07T05:19:34;10.33;;;5.00;;
79212;SDS011;68639;52.380;9.822;2024-01-07T05:21:59;13.10;;;5.77;;
79212;SDS011;68639;52.380;9.822;2024-01-07T05:24:24;9.30;;;4.63;;
79212;SDS011;68639;52.380;9.822;2024-01-07T05:26:50;10.53;;;5.10;;
79212;SDS011;68639;52.380;9.822;2024-01-07T05:29:15;11.53;;;4.97;;
79212;SDS011;68639;52.380;9.822;2024-01-07T05:31:40;9.00;;;5.37;;
79212;SDS011;68639;52.380;9.822;2024-01-07T05:34:06;8.20;;;5.20;;
79212;SDS011;68639;52.380;9.822;2024-01-07T05:36:31;7.70;;;4.50;;
79212;SDS011;68639;52.380;9.822;2024-01-07T05:38:56;12.73;;;5.93;;
79212;SDS011;68639;52.380;9.822;2024-01-07T05:41:21;9.70;;;5.43;;
79212;SDS011;68639;52.380;9.822;2024-01-07T05:43:47;8.30;;;4.87;;
79212;SDS011;68639;52.380;9.822;2024-01-07T05:46:12;8.13;;;4.97;;
79212;SDS011;68639;52.380;9.822;2024-01-07T05:48:40;9.37;;;4.97;;
79212;SDS011;68639;52.380;9.822;2024-01-07T05:51:06;11.80;;;4.67;;
79212;SDS011;68639;52.380;9.822;2024-01-07T05:53:31;7.90;;;5.07;;
79212;SDS011;68639;52.380;9.822;2024-01-07T05:55:56;10.40;;;5.00;;
79212;SDS011;68639;52.380;9.822;2024-01-07T05:58:21;10.80;;;5.10;;
79212;SDS011;68639;52.380;9.822;2024-01-07T06:00:46;10.03;;;5.63;;
79212;SDS011;68639;52.380;9.822;2024-01-07T06:03:11;8.67;;;4.87;;
79212;SDS011;68639;52.380;9.822;2024-01-07T06:05:37;13.03;;;4.83;;
79212;SDS011;68639;52.380;9.822;2024-01-07T06:08:03;10.57;;;5.30;;
79212;SDS011;68639;52.380;9.822;2024-01-07T06:10:28;9.20;;;4.53;;
79212;SDS011;68639;52.380;9.822;2024-01-07T06:12:53;7.73;;;4.40;;
79212;SDS011;68639;52.380;9.822;2024-01-07T06:15:18;9.53;;;4.60;;
79212;SDS011;68639;52.380;9.822;2024-01-07T06:17:44;7.80;;;4.40;;
79212;SDS011;68639;52.380;9.822;2024-01-07T06:20:11;10.90;;;4.30;;
79212;SDS011;68639;52.380;9.822;2024-01-07T06:22:36;7.63;;;4.20;;
79212;SDS011;68639;52.380;9.822;2024-01-07T06:25:01;9.53;;;3.83;;
79212;SDS011;68639;52.380;9.822;2024-01-07T06:27:26;8.77;;;4.70;;
79212;SDS011;68639;52.380;9.822;2024-01-07T06:29:52;7.03;;;4.10;;
79212;SDS011;68639;52.380;9.822;2024-01-07T06:32:17;6.97;;;4.10;;
79212;SDS011;68639;52.380;9.822;2024-01-07T06:34:42;8.23;;;4.30;;
79212;SDS011;68639;52.380;9.822;2024-01-07T06:37:07;8.47;;;4.20;;
79212;SDS011;68639;52.380;9.822;2024-01-07T06:39:35;8.80;;;4.30;;
79212;SDS011;68639;52.380;9.822;2024-01-07T06:42:00;8.97;;;4.50;;
79212;SDS011;68639;52.380;9.822;2024-01-07T06:44:25;7.57;;;4.13;;
79212;SDS011;68639;52.380;9.822;2024-01-07T06:46:50;8.93;;;4.87;;
79212;SDS011;68639;52.380;9.822;2024-01-07T06:49:16;8.30;;;4.10;;
79212;SDS011;68639;52.380;9.822;2024-01-07T06:51:41;6.97;;;4.67;;
79212;SDS011;68639;52.380;9.822;2024-01-07T06:54:06;7.43;;;4.17;;
79212;SDS011;68639;52.380;9.822;2024-01-07T06:56:31;7.43;;;4.50;;
79212;SDS011;68639;52.380;9.822;2024-01-07T06:58:57;8.00;;;4.70;;
79212;SDS011;68639;52.380;9.822;2024-01-07T07:01:22;10.33;;;4.50;;
79212;SDS011;68639;52.380;9.822;2024-01-07T07:03:48;11.90;;;5.33;;
79212;SDS011;68639;52.380;9.822;2024-01-07T07:06:13;8.60;;;4.70;;
79212;SDS011;68639;52.380;9.822;2024-01-07T07:08:38;7.97;;;4.47;;
79212;SDS011;68639;52.380;9.822;2024-01-07T07:11:04;8.33;;;4.70;;
79212;SDS011;68639;52.380;9.822;2024-01-07T07:13:29;10.53;;;4.87;;
79212;SDS011;68639;52.380;9.822;2024-01-07T07:15:54;9.90;;;5.67;;
79212;SDS011;68639;52.380;9.822;2024-01-07T07:18:19;13.93;;;6.10;;
79212;SDS011;68639;52.380;9.822;2024-01-07T07:20:44;15.43;;;8.77;;
79212;SDS011;68639;52.380;9.822;2024-01-07T07:23:10;13.10;;;6.43;;
79212;SDS011;68639;52.380;9.822;2024-01-07T07:25:35;15.30;;;8.03;;
79212;SDS011;68639;52.380;9.822;2024-01-07T07:28:00;11.77;;;5.70;;
79212;SDS011;68639;52.380;9.822;2024-01-07T07:30:25;10.33;;;5.90;;
79212;SDS011;68639;52.380;9.822;2024-01-07T07:32:50;18.13;;;9.93;;
79212;SDS011;68639;52.380;9.822;2024-01-07T07:35:16;20.37;;;10.90;;
79212;SDS011;68639;52.380;9.822;2024-01-07T07:37:41;12.67;;;6.30;;
79212;SDS011;68639;52.380;9.822;2024-01-07T07:40:06;11.07;;;6.73;;
79212;SDS011;68639;52.380;9.822;2024-01-07T07:42:32;10.33;;;6.30;;
79212;SDS011;68639;52.380;9.822;2024-01-07T07:44:57;16.83;;;6.20;;
79212;SDS011;68639;52.380;9.822;2024-01-07T07:47:22;12.20;;;5.80;;
79212;SDS011;68639;52.380;9.822;2024-01-07T07:49:47;10.90;;;6.03;;
79212;SDS011;68639;52.380;9.822;2024-01-07T07:52:15;12.20;;;6.43;;
79212;SDS011;68639;52.380;9.822;2024-01-07T07:54:40;11.07;;;5.93;;
79212;SDS011;68639;52.380;9.822;2024-01-07T07:57:05;11.83;;;6.00;;
79212;SDS011;68639;52.380;9.822;2024-01-07T07:59:30;12.13;;;6.27;;
79212;SDS011;68639;52.380;9.822;2024-01-07T08:01:56;13.57;;;6.43;;
79212;SDS011;68639;52.380;9.822;2024-01-07T08:04:21;9.97;;;6.30;;
79212;SDS011;68639;52.380;9.822;2024-01-07T08:06:46;11.77;;;6.60;;
79212;SDS011;68639;52.380;9.822;2024-01-07T08:09:11;10.77;;;6.27;;
79212;SDS011;68639;52.380;9.822;2024-01-07T08:11:37;11.23;;;6.73;;
79212;SDS011;68639;52.380;9.822;2024-01-07T08:14:02;9.23;;;6.40;;
79212;SDS011;68639;52.380;9.822;2024-01-07T08:16:27;12.97;;;6.67;;
79212;SDS011;68639;52.380;9.822;2024-01-07T08:18:52;9.57;;;5.47;;
79212;SDS011;68639;52.380;9.822;2024-01-07T08:21:21;11.23;;;5.80;;
79212;SDS011;68639;52.380;9.822;2024-01-07T08:23:49;12.87;;;7.33;;
79212;SDS011;68639;52.380;9.822;2024-01-07T08:26:20;8.23;;;5.23;;
79212;SDS011;68639;52.380;9.822;2024-01-07T08:28:45;10.67;;;5.93;;
79212;SDS011;68639;52.380;9.822;2024-01-07T08:31:11;10.13;;;5.30;;
79212;SDS011;68639;52.380;9.822;2024-01-07T08:33:36;11.10;;;5.30;;
79212;SDS011;68639;52.380;9.822;2024-01-07T08:36:01;8.73;;;5.40;;
79212;SDS011;68639;52.380;9.822;2024-01-07T08:38:26;11.07;;;5.40;;
79212;SDS011;68639;52.380;9.822;2024-01-07T08:40:51;10.83;;;5.63;;
79212;SDS011;68639;52.380;9.822;2024-01-07T08:43:17;9.10;;;5.47;;
79212;SDS011;68639;52.380;9.822;2024-01-07T08:45:42;10.03;;;5.50;;
79212;SDS011;68639;52.380;9.822;2024-01-07T08:48:07;9.67;;;5.43;;
79212;SDS011;68639;52.380;9.822;2024-01-07T08:50:32;8.30;;;5.53;;
79212;SDS011;68639;52.380;9.822;2024-01-07T08:52:57;10.43;;;5.60;;
79212;SDS011;68639;52.380;9.822;2024-01-07T08:55:23;8.53;;;5.70;;
79212;SDS011;68639;52.380;9.822;2024-01-07T08:57:48;9.13;;;5.70;;
79212;SDS011;68639;52.380;9.822;2024-01-07T09:00:14;9.20;;;5.37;;
79212;SDS011;68639;52.380;9.822;2024-01-07T09:02:39;11.00;;;5.57;;
79212;SDS011;68639;52.380;9.822;2024-01-07T09:05:05;9.30;;;5.43;;
79212;SDS011;68639;52.380;9.822;2024-01-07T09:07:30;10.47;;;5.40;;
79212;SDS011;68639;52.380;9.822;2024-01-07T09:09:57;8.67;;;5.20;;
79212;SDS011;68639;52.380;9.822;2024-01-07T09:12:24;8.20;;;5.10;;
79212;SDS011;68639;52.380;9.822;2024-01-07T09:14:49;8.90;;;5.60;;
79212;SDS011;68639;52.380;9.822;2024-01-07T09:17:14;8.57;;;5.10;;
79212;SDS011;68639;52.380;9.822;2024-01-07T09:19:42;9.93;;;6.00;;
79212;SDS011;68639;52.380;9.822;2024-01-07T09:22:07;8.80;;;5.13;;
79212;SDS011;68639;52.380;9.822;2024-01-07T09:24:32;7.57;;;4.47;;
79212;SDS011;68639;52.380;9.822;2024-01-07T09:26:57;7.80;;;4.80;;
79212;SDS011;68639;52.380;9.822;2024-01-07T09:29:23;7.70;;;4.70;;
79212;SDS011;68639;52.380;9.822;2024-01-07T09:31:48;8.87;;;5.00;;
79212;SDS011;68639;52.380;9.822;2024-01-07T09:34:13;7.87;;;4.43;;
79212;SDS011;68639;52.380;9.822;2024-01-07T09:36:39;9.40;;;4.77;;
79212;SDS011;68639;52.380;9.822;2024-01-07T09:39:05;7.53;;;4.37;;
79212;SDS011;68639;52.380;9.822;2024-01-07T09:41:31;13.03;;;5.20;;
79212;SDS011;68639;52.380;9.822;2024-01-07T09:43:56;9.47;;;4.80;;
79212;SDS011;68639;52.380;9.822;2024-01-07T09:46:23;7.47;;;4.77;;
79212;SDS011;68639;52.380;9.822;2024-01-07T09:48:49;9.27;;;5.27;;
79212;SDS011;68639;52.380;9.822;2024-01-07T09:51:14;8.27;;;4.80;;
79212;SDS011;68639;52.380;9.822;2024-01-07T09:53:40;8.90;;;4.63;;
79212;SDS011;68639;52.380;9.822;2024-01-07T09:56:09;12.43;;;5.07;;
79212;SDS011;68639;52.380;9.822;2024-01-07T09:58:36;9.32;;;5.07;;
79212;SDS011;68639;52.380;9.822;2024-01-07T10:01:02;10.47;;;5.10;;
79212;SDS011;68639;52.380;9.822;2024-01-07T10:03:29;8.20;;;4.57;;
79212;SDS011;68639;52.380;9.822;2024-01-07T10:05:55;8.03;;;4.00;;
79212;SDS011;68639;52.380;9.822;2024-01-07T10:08:20;8.73;;;4.53;;
79212;SDS011;68639;52.380;9.822;2024-01-07T10:10:45;8.97;;;4.83;;
79212;SDS011;68639;52.380;9.822;2024-01-07T10:13:10;10.63;;;4.63;;
79212;SDS011;68639;52.380;9.822;2024-01-07T10:15:36;8.48;;;4.68;;
79212;SDS011;68639;52.380;9.822;2024-01-07T10:18:04;16.13;;;4.43;;
79212;SDS011;68639;52.380;9.822;2024-01-07T10:20:31;10.77;;;5.00;;
79212;SDS011;68639;52.380;9.822;2024-01-07T10:22:56;10.33;;;4.53;;
79212;SDS011;68639;52.380;9.822;2024-01-07T10:25:22;9.18;;;4.30;;
79212;SDS011;68639;52.380;9.822;2024-01-07T10:27:47;7.80;;;4.70;;
79212;SDS011;68639;52.380;9.822;2024-01-07T10:30:13;8.83;;;5.00;;
79212;SDS011;68639;52.380;9.822;2024-01-07T10:32:40;11.93;;;5.10;;
79212;SDS011;68639;52.380;9.822;2024-01-07T10:35:06;9.87;;;5.53;;
79212;SDS011;68639;52.380;9.822;2024-01-07T10:37:32;9.07;;;4.67;;
79212;SDS011;68639;52.380;9.822;2024-01-07T10:39:58;8.57;;;5.03;;
79212;SDS011;68639;52.380;9.822;2024-01-07T10:42:27;9.57;;;4.80;;
79212;SDS011;68639;52.380;9.822;2024-01-07T10:44:53;8.83;;;5.40;;
79212;SDS011;68639;52.380;9.822;2024-01-07T10:47:18;8.90;;;4.80;;
79212;SDS011;68639;52.380;9.822;2024-01-07T10:49:44;10.37;;;5.07;;
79212;SDS011;68639;52.380;9.822;2024-01-07T10:52:12;9.37;;;5.43;;
79212;SDS011;68639;52.380;9.822;2024-01-07T10:54:38;12.60;;;5.40;;
79212;SDS011;68639;52.380;9.822;2024-01-07T10:57:07;12.80;;;4.83;;
79212;SDS011;68639;52.380;9.822;2024-01-07T10:59:32;10.50;;;5.27;;
79212;SDS011;68639;52.380;9.822;2024-01-07T11:01:58;8.83;;;4.80;;
79212;SDS011;68639;52.380;9.822;2024-01-07T11:04:28;10.10;;;5.43;;
79212;SDS011;68639;52.380;9.822;2024-01-07T11:07:00;10.10;;;5.53;;
79212;SDS011;68639;52.380;9.822;2024-01-07T11:09:37;8.57;;;4.80;;
79212;SDS011;68639;52.380;9.822;2024-01-07T11:12:04;8.07;;;4.80;;
79212;SDS011;68639;52.380;9.822;2024-01-07T11:14:40;7.97;;;4.57;;
79212;SDS011;68639;52.380;9.822;2024-01-07T11:17:07;10.77;;;5.20;;
79212;SDS011;68639;52.380;9.822;2024-01-07T11:19:34;11.27;;;5.00;;
79212;SDS011;68639;52.380;9.822;2024-01-07T11:24:44;11.23;;;5.30;;
79212;SDS011;68639;52.380;9.822;2024-01-07T11:27:09;10.37;;;5.30;;
79212;SDS011;68639;52.380;9.822;2024-01-07T11:29:35;11.90;;;5.80;;
79212;SDS011;68639;52.380;9.822;2024-01-07T11:32:00;12.77;;;6.17;;
79212;SDS011;68639;52.380;9.822;2024-01-07T11:34:43;10.93;;;5.87;;
79212;SDS011;68639;52.380;9.822;2024-01-07T11:37:11;11.97;;;6.07;;
79212;SDS011;68639;52.380;9.822;2024-01-07T11:39:45;11.37;;;5.80;;
79212;SDS011;68639;52.380;9.822;2024-01-07T11:42:11;10.35;;;6.30;;
79212;SDS011;68639;52.380;9.822;2024-01-07T11:45:00;9.73;;;5.63;;
79212;SDS011;68639;52.380;9.822;2024-01-07T11:47:24;11.05;;;5.80;;
79212;SDS011;68639;52.380;9.822;2024-01-07T11:49:53;12.43;;;5.80;;
79212;SDS011;68639;52.380;9.822;2024-01-07T11:52:18;13.30;;;6.40;;
79212;SDS011;68639;52.380;9.822;2024-01-07T11:54:44;11.33;;;5.97;;
79212;SDS011;68639;52.380;9.822;2024-01-07T11:57:09;10.87;;;5.73;;
79212;SDS011;68639;52.380;9.822;2024-01-07T11:59:35;8.63;;;5.43;;
79212;SDS011;68639;52.380;9.822;2024-01-07T12:02:01;13.23;;;5.40;;
79212;SDS011;68639;52.380;9.822;2024-01-07T12:04:29;11.23;;;5.27;;
79212;SDS011;68639;52.380;9.822;2024-01-07T12:06:54;8.83;;;5.03;;
79212;SDS011;68639;52.380;9.822;2024-01-07T12:09:19;12.10;;;5.53;;
79212;SDS011;68639;52.380;9.822;2024-01-07T12:11:44;12.63;;;5.63;;
79212;SDS011;68639;52.380;9.822;2024-01-07T12:14:10;10.23;;;5.27;;
79212;SDS011;68639;52.380;9.822;2024-01-07T12:16:36;11.50;;;5.63;;
79212;SDS011;68639;52.380;9.822;2024-01-07T12:19:01;10.80;;;5.77;;
79212;SDS011;68639;52.380;9.822;2024-01-07T12:21:26;11.10;;;5.93;;
79212;SDS011;68639;52.380;9.822;2024-01-07T12:23:53;10.13;;;5.80;;
79212;SDS011;68639;52.380;9.822;2024-01-07T12:26:19;15.30;;;6.03;;
79212;SDS011;68639;52.380;9.822;2024-01-07T12:28:44;10.97;;;5.90;;
79212;SDS011;68639;52.380;9.822;2024-01-07T12:31:10;11.57;;;5.73;;
79212;SDS011;68639;52.380;9.822;2024-01-07T12:33:38;10.97;;;5.13;;
79212;SDS011;68639;52.380;9.822;2024-01-07T12:36:05;10.30;;;5.00;;
79212;SDS011;68639;52.380;9.822;2024-01-07T12:38:30;8.50;;;4.90;;
79212;SDS011;68639;52.380;9.822;2024-01-07T12:40:56;10.00;;;5.33;;
79212;SDS011;68639;52.380;9.822;2024-01-07T12:43:21;10.27;;;5.63;;
79212;SDS011;68639;52.380;9.822;2024-01-07T12:45:47;11.57;;;5.60;;
79212;SDS011;68639;52.380;9.822;2024-01-07T12:48:12;8.80;;;5.17;;
79212;SDS011;68639;52.380;9.822;2024-01-07T12:50:38;11.83;;;5.70;;
79212;SDS011;68639;52.380;9.822;2024-01-07T12:53:03;8.67;;;5.43;;
79212;SDS011;68639;52.380;9.822;2024-01-07T12:55:28;9.70;;;5.30;;
79212;SDS011;68639;52.380;9.822;2024-01-07T12:57:54;12.57;;;6.30;;
79212;SDS011;68639;52.380;9.822;2024-01-07T13:00:20;9.07;;;5.13;;
79212;SDS011;68639;52.380;9.822;2024-01-07T13:02:45;11.60;;;5.50;;
79212;SDS011;68639;52.380;9.822;2024-01-07T13:05:10;9.43;;;5.40;;
79212;SDS011;68639;52.380;9.822;2024-01-07T13:07:35;8.53;;;5.27;;
79212;SDS011;68639;52.380;9.822;2024-01-07T13:10:00;11.23;;;4.73;;
79212;SDS011;68639;52.380;9.822;2024-01-07T13:12:26;9.80;;;4.77;;
79212;SDS011;68639;52.380;9.822;2024-01-07T13:14:51;7.47;;;4.30;;
79212;SDS011;68639;52.380;9.822;2024-01-07T13:17:16;16.30;;;7.13;;
79212;SDS011;68639;52.380;9.822;2024-01-07T13:19:42;17.50;;;6.83;;
79212;SDS011;68639;52.380;9.822;2024-01-07T13:22:07;10.73;;;4.87;;
79212;SDS011;68639;52.380;9.822;2024-01-07T13:24:33;12.03;;;5.63;;
79212;SDS011;68639;52.380;9.822;2024-01-07T13:26:58;10.77;;;5.00;;
79212;SDS011;68639;52.380;9.822;2024-01-07T13:29:23;8.40;;;4.70;;
79212;SDS011;68639;52.380;9.822;2024-01-07T13:31:49;11.13;;;4.97;;
79212;SDS011;68639;52.380;9.822;2024-01-07T13:34:14;7.17;;;4.03;;
79212;SDS011;68639;52.380;9.822;2024-01-07T13:36:40;11.93;;;4.77;;
79212;SDS011;68639;52.380;9.822;2024-01-07T13:39:05;10.77;;;5.43;;
79212;SDS011;68639;52.380;9.822;2024-01-07T13:41:32;7.33;;;4.13;;
79212;SDS011;68639;52.380;9.822;2024-01-07T13:43:58;13.93;;;4.70;;
79212;SDS011;68639;52.380;9.822;2024-01-07T13:46:23;11.20;;;4.80;;
79212;SDS011;68639;52.380;9.822;2024-01-07T13:48:50;7.67;;;3.70;;
79212;SDS011;68639;52.380;9.822;2024-01-07T13:51:15;8.87;;;4.40;;
79212;SDS011;68639;52.380;9.822;2024-01-07T13:53:40;8.57;;;4.53;;
79212;SDS011;68639;52.380;9.822;2024-01-07T13:56:06;7.97;;;4.70;;
79212;SDS011;68639;52.380;9.822;2024-01-07T13:58:32;9.63;;;3.87;;
79212;SDS011;68639;52.380;9.822;2024-01-07T14:00:57;11.73;;;4.53;;
79212;SDS011;68639;52.380;9.822;2024-01-07T14:03:22;10.27;;;4.30;;
79212;SDS011;68639;52.380;9.822;2024-01-07T14:05:47;8.60;;;4.10;;
79212;SDS011;68639;52.380;9.822;2024-01-07T14:08:13;6.33;;;3.70;;
79212;SDS011;68639;52.380;9.822;2024-01-07T14:10:38;14.47;;;7.27;;
79212;SDS011;68639;52.380;9.822;2024-01-07T14:13:04;9.93;;;4.30;;
79212;SDS011;68639;52.380;9.822;2024-01-07T14:15:29;9.40;;;4.80;;
79212;SDS011;68639;52.380;9.822;2024-01-07T14:17:54;7.17;;;3.90;;
79212;SDS011;68639;52.380;9.822;2024-01-07T14:20:19;9.67;;;3.93;;
79212;SDS011;68639;52.380;9.822;2024-01-07T14:22:46;11.33;;;5.37;;
79212;SDS011;68639;52.380;9.822;2024-01-07T14:25:11;8.00;;;4.23;;
79212;SDS011;68639;52.380;9.822;2024-01-07T14:27:38;8.50;;;4.07;;
79212;SDS011;68639;52.380;9.822;2024-01-07T14:30:04;8.77;;;4.30;;